• Join FlightAware (Why Join?)
  • Login
  • US Flag 
01:28AM EDT


 

Airport Tracker/Info


-or-


 

Live Flight TrackerFlight Track Log ✈ N678DF ✈ 12-May-2013 ✈ KAMW - KMSN

Flight Track Log - Related Links

Times and Time Zones

All times are in EDT time to prevent confusion due to time zone crossing. See the N678DF flight status page for this flight to view local times or setup timezone preferences in your user account.

Time Position Orientation Groundspeed Altitude Reporting Facility
EDT Latitude Longitude Course Direction KTS MPH feet Rate Location/Type
06:37PM 41.9981 -93.6519 66° East 160 184 2,100  Level Minneapolis Center
06:39PM 41.9786 -93.5978 116° Southeast 155 178 3,200 720 Climbing Minneapolis Center
06:40PM 41.9939 -93.5453 69° East 155 178 3,800 840 Climbing Minneapolis Center
06:41PM 42.0217 -93.5039 48° Northeast 141 162 5,000 600 Climbing Minneapolis Center
06:42PM 42.0389 -93.4564 64° Northeast 149 171 5,100  Climbing Minneapolis Center
06:43PM 42.0384 -93.4516 66° East  Level FlightAware Approximate
06:43PM 42.0606 -93.3944 65° Northeast 156 180 5,100  Level Minneapolis Center
06:44PM 42.0758 -93.3300 72° East 167 192 5,100 -60 Level Minneapolis Center
06:45PM 42.0939 -93.2711 68° East 169 194 5,000 -60 Descending Minneapolis Center
06:46PM 42.1122 -93.2111 68° East 171 197 5,000  Level Minneapolis Center
06:47PM 42.1294 -93.1472 70° East 172 198 5,000 360 Level Minneapolis Center
06:48PM 42.1461 -93.0842 70° East 167 192 5,800 720 Climbing Minneapolis Center
06:49PM 42.1633 -93.0264 68° East 156 180 6,600 540 Climbing Minneapolis Center
06:50PM 42.1808 -92.9714 67° East 158 182 7,000 180 Climbing Minneapolis Center
06:51PM 42.1972 -92.9053 71° East 172 198 7,000  Level Minneapolis Center
06:52PM 42.2111 -92.8561 69° East 166 191 7,000  Level Minneapolis Center
06:53PM 42.2297 -92.7986 66° East 166 191 7,000  Level Minneapolis Center
06:54PM 42.2489 -92.7250 71° East 171 197 7,000  Level Minneapolis Center
06:55PM 42.2653 -92.6644 70° East 172 198 7,000  Level Minneapolis Center
06:56PM 42.2817 -92.6072 69° East 169 194 7,000  Level Minneapolis Center
06:57PM 42.2975 -92.5500 69° East 167 192 7,000  Level Minneapolis Center
06:58PM 42.3142 -92.4933 68° East 166 191 7,000  Level Minneapolis Center
06:59PM 42.3333 -92.4222 70° East 167 192 7,000  Level Minneapolis Center
07:00PM 42.3497 -92.3644 69° East 167 192 7,000  Level Minneapolis Center
07:01PM 42.3661 -92.3042 70° East 169 194 7,000  Level Minneapolis Center
07:02PM 42.3828 -92.2453 69° East 170 196 7,000  Level Minneapolis Center
07:04PM 42.4147 -92.1250 70° East 169 194 7,000  Level Chicago Center
07:05PM 42.4336 -92.0550 70° East 167 192 7,000  Level Chicago Center
07:06PM 42.4506 -91.9975 68° East 167 192 7,000  Level Chicago Center
07:08PM 42.4656 -91.9389 71° East 166 191 7,000  Level Chicago Center
07:09PM 42.4825 -91.8794 69° East 168 193 7,000  Level Chicago Center
07:10PM 42.5019 -91.8092 69° East 168 193 7,000  Level Chicago Center
07:11PM 42.5172 -91.7517 70° East 167 192 7,000  Level Chicago Center
07:12PM 42.5342 -91.6925 69° East 168 193 7,000  Level Chicago Center
07:13PM 42.5503 -91.6342 69° East 169 194 7,000  Level Chicago Center
07:14PM 42.5656 -91.5767 70° East 167 192 7,000  Level Chicago Center
07:15PM 42.5839 -91.5064 70° East 167 192 7,000  Level Chicago Center
07:16PM 42.6000 -91.4497 69° East 165 190 7,000  Level Chicago Center
07:17PM 42.6158 -91.3917 70° East 166 191 7,000  Level Chicago Center
07:18PM 42.6306 -91.3325 71° East 167 192 7,000  Level Chicago Center
07:19PM 42.6492 -91.2608 71° East 168 193 7,000  Level Chicago Center
07:20PM 42.6647 -91.2044 69° East 166 191 7,000  Level Chicago Center
07:21PM 42.6797 -91.1497 70° East 161 185 7,000  Level Chicago Center
07:22PM 42.6936 -91.0964 70° East 156 180 7,000  Level Chicago Center
07:23PM 42.7075 -91.0419 71° East 154 177 7,100  Climbing Chicago Center
07:24PM 42.7272 -90.9681 70° East 165 190 7,000 -60 Descending Chicago Center
07:25PM 42.7431 -90.9078 70° East 169 194 7,000  Level Chicago Center
07:26PM 42.7592 -90.8467 70° East 172 198 7,000  Level Chicago Center
07:27PM 42.7747 -90.7864 71° East 172 198 7,100  Climbing Chicago Center
07:28PM 42.7903 -90.7236 71° East 175 201 7,000 -60 Descending Chicago Center
07:29PM 42.8072 -90.6611 70° East 178 205 7,000  Level Chicago Center
07:30PM 42.8258 -90.5897 70° East 170 196 7,000  Level Chicago Center
07:31PM 42.8414 -90.5300 70° East 170 196 7,100  Climbing Chicago Center
07:32PM 42.8561 -90.4711 71° East 166 191 7,000 -60 Descending Chicago Center
07:33PM 42.8719 -90.4103 70° East 170 196 7,000  Level Chicago Center
07:34PM 42.8872 -90.3489 71° East 172 198 7,000  Level Chicago Center
07:35PM 42.9056 -90.2761 71° East 172 198 7,000  Level Chicago Center
07:36PM 42.9208 -90.2181 70° East 166 191 7,000  Level Chicago Center
07:37PM 42.9367 -90.1606 69° East 164 189 7,000 -180 Level Chicago Center
07:38PM 42.9503 -90.0975 74° East 172 198 6,700 -420 Descending Chicago Center
07:40PM 42.9678 -90.0317 70° East 183 211 6,200 -660 Descending Chicago Center
07:41PM 42.9861 -89.9542 72° East 181 208 5,400 -780 Descending Chicago Center
07:42PM 43.0053 -89.8828 70° East 184 212 4,700 -600 Descending Chicago Center
07:43PM 43.0197 -89.8172 73° East 181 208 4,200 -300 Descending Chicago Center
07:44PM 43.0283 -89.7564 79° East 169 194 4,100 -60 Descending Chicago Center
07:45PM 43.0211 -89.6922 99° East 167 192 4,100  Level Chicago Center
07:46PM 43.0161 -89.6283 96° East 169 194 4,100  Level Chicago Center
07:47PM 43.0117 -89.5661 96° East 167 192 4,100 -60 Level Chicago Center
07:48PM 43.0078 -89.4917 94° East 168 193 4,000 -60 Descending Chicago Center
07:49PM 43.0033 -89.4314 96° East 164 189 4,000  Level Chicago Center
07:50PM 43.0003 -89.3742 94° East 158 182 4,100 -300 Climbing Chicago Center
07:51PM 42.9961 -89.3142 95° East 157 181 3,400 -780 Descending Chicago Center
07:52PM 43.0314 -89.3131 North 150 173 2,600 -540 Descending Chicago Center
07:53PM 43.0669 -89.3250 346° North 137 158 2,300 -240 Descending Chicago Center
07:54PM 43.1050 -89.3017 24° Northeast 138 159 2,200 -420 Descending Chicago Center
07:55PM 43.1231 -89.3106 340° North 103 119 1,500 -480 Descending Chicago Center
07:56PM 43.1403 -89.3317 318° Northwest 93 107 1,300 -240 Descending Chicago Center